createdAt,value
2018-12-31T00:02:52.227Z,54.01
2018-12-31T00:06:57.916Z,54.65
2018-12-31T00:11:03.622Z,54.97
2018-12-31T00:15:09.377Z,55.40
2018-12-31T00:19:15.039Z,54.41
2018-12-31T00:23:20.719Z,54.61
2018-12-31T00:27:26.405Z,54.64
2018-12-31T00:31:32.121Z,54.70
2018-12-31T00:35:37.785Z,54.57
2018-12-31T00:39:43.478Z,54.52
2018-12-31T00:43:49.190Z,54.67
2018-12-31T00:47:55.465Z,54.92
2018-12-31T00:52:01.125Z,55.05
2018-12-31T01:02:33.993Z,55.22
2018-12-31T01:06:39.834Z,57.38
2018-12-31T01:10:46.428Z,56.40
2018-12-31T01:14:52.185Z,56.54
2018-12-31T01:18:57.937Z,55.96
2018-12-31T01:28:29.750Z,56.32
2018-12-31T01:32:35.426Z,56.01
2018-12-31T01:36:41.101Z,56.11
2018-12-31T01:40:46.843Z,56.04
2018-12-31T01:44:52.524Z,56.14
2018-12-31T01:48:58.208Z,56.18
2018-12-31T01:53:03.910Z,56.07
2018-12-31T01:57:09.597Z,56.17
2018-12-31T02:01:15.333Z,56.32
2018-12-31T02:05:21.041Z,56.53
2018-12-31T02:09:27.701Z,56.77
2018-12-31T02:13:33.374Z,56.81
2018-12-31T02:17:40.048Z,56.46
2018-12-31T02:21:45.736Z,56.70
2018-12-31T02:25:51.512Z,56.67
2018-12-31T02:29:57.245Z,56.35
2018-12-31T02:34:03.039Z,56.28
2018-12-31T02:38:08.718Z,56.42
2018-12-31T02:42:14.390Z,56.20
2018-12-31T02:46:20.148Z,56.24
2018-12-31T02:50:25.847Z,56.10
2018-12-31T02:54:31.533Z,56.12
2018-12-31T02:58:37.220Z,56.20
2018-12-31T03:02:42.901Z,56.95
2018-12-31T03:06:48.601Z,57.07
2018-12-31T03:10:54.245Z,57.28
2018-12-31T03:14:59.928Z,57.23
2018-12-31T03:19:05.612Z,57.35
2018-12-31T03:23:11.301Z,57.24
2018-12-31T03:27:17.015Z,57.17
2018-12-31T03:31:34.933Z,56.99
2018-12-31T03:40:42.108Z,56.71
2018-12-31T03:45:26.743Z,56.45
2018-12-31T03:49:44.979Z,57.09
2018-12-31T03:54:10.008Z,56.79
2018-12-31T03:58:28.007Z,57.14
2018-12-31T04:02:53.040Z,57.04
2018-12-31T04:07:11.189Z,56.59
2018-12-31T04:20:49.343Z,57.31
2018-12-31T04:25:07.054Z,57.20
2018-12-31T04:29:32.045Z,57.54
2018-12-31T04:33:49.567Z,57.69
2018-12-31T04:38:14.610Z,57.81
2018-12-31T04:42:34.251Z,57.03
2018-12-31T04:46:59.279Z,57.68
2018-12-31T04:51:16.997Z,57.72
2018-12-31T04:55:44.513Z,57.70
2018-12-31T05:00:09.164Z,57.15
2018-12-31T05:04:34.204Z,57.35
2018-12-31T05:14:56.093Z,57.12
2018-12-31T05:24:55.085Z,57.24
2018-12-31T05:29:52.046Z,56.76
2018-12-31T05:34:55.638Z,57.37
2018-12-31T05:39:52.665Z,57.29
2018-12-31T05:44:56.263Z,57.13
2018-12-31T05:49:53.647Z,57.17
2018-12-31T05:54:57.247Z,57.29
2018-12-31T05:59:54.260Z,57.12
2018-12-31T06:04:50.794Z,56.98
2018-12-31T06:09:47.925Z,56.88
2018-12-31T06:14:47.757Z,56.82
2018-12-31T06:19:51.357Z,56.91
2018-12-31T06:24:48.419Z,57.15
2018-12-31T06:29:52.005Z,57.34
2018-12-31T06:39:51.634Z,56.89
2018-12-31T06:44:48.097Z,56.71
2018-12-31T06:49:51.696Z,57.42
2018-12-31T07:04:58.593Z,57.74
2018-12-31T07:14:53.634Z,57.91
2018-12-31T07:19:57.220Z,58.39
2018-12-31T07:24:53.688Z,58.26
2018-12-31T07:35:53.445Z,59.07
2018-12-31T07:40:18.475Z,58.83
2018-12-31T07:44:36.137Z,58.81
2018-12-31T07:49:01.235Z,58.64
2018-12-31T07:53:18.895Z,58.43
2018-12-31T07:57:43.975Z,58.42
2018-12-31T08:02:01.637Z,58.40
2018-12-31T08:06:19.501Z,58.79
2018-12-31T08:10:43.576Z,58.69
2018-12-31T08:15:01.599Z,58.82
2018-12-31T08:19:26.637Z,58.87
2018-12-31T08:23:44.229Z,58.69
2018-12-31T08:28:09.270Z,58.65
2018-12-31T08:32:27.005Z,58.64
2018-12-31T08:36:52.062Z,58.28
2018-12-31T08:41:09.821Z,58.03
2018-12-31T08:45:34.851Z,57.94
2018-12-31T08:49:52.467Z,58.19
2018-12-31T08:54:17.477Z,58.51
2018-12-31T08:58:35.276Z,58.39
2018-12-31T09:03:00.309Z,58.14
2018-12-31T09:07:18.135Z,57.87
2018-12-31T09:11:43.155Z,58.00
2018-12-31T09:15:59.077Z,57.49
2018-12-31T09:20:24.106Z,57.85
2018-12-31T09:24:44.751Z,58.24
2018-12-31T09:29:50.309Z,57.99
2018-12-31T09:34:46.814Z,57.77
2018-12-31T09:39:50.420Z,58.04
2018-12-31T09:44:46.835Z,57.94
2018-12-31T10:00:49.186Z,57.47
2018-12-31T10:10:49.282Z,58.43
2018-12-31T10:15:48.960Z,57.24
2018-12-31T10:19:54.660Z,57.04
2018-12-31T10:24:48.628Z,57.10
2018-12-31T10:33:38.318Z,57.35
2018-12-31T10:37:56.365Z,57.33
2018-12-31T10:42:21.425Z,57.35
2018-12-31T10:46:39.596Z,57.55
2018-12-31T10:55:41.591Z,57.61
2018-12-31T11:00:01.256Z,57.20
2018-12-31T11:04:27.274Z,57.32
2018-12-31T11:08:45.428Z,57.38
2018-12-31T11:13:10.473Z,56.83
2018-12-31T11:17:28.319Z,56.88
2018-12-31T11:21:53.377Z,56.99
2018-12-31T11:26:11.520Z,56.76
2018-12-31T11:30:31.146Z,56.55
2018-12-31T11:44:09.457Z,56.52
2018-12-31T11:48:27.326Z,56.17
2018-12-31T11:52:52.348Z,56.69
2018-12-31T11:57:10.150Z,55.59
2018-12-31T12:01:28.123Z,55.75
2018-12-31T12:05:46.362Z,57.12
2018-12-31T12:10:04.665Z,56.08
2018-12-31T12:14:22.938Z,55.92
2018-12-31T12:18:48.298Z,56.59
2018-12-31T12:22:53.978Z,55.99
2018-12-31T12:26:59.734Z,55.93
2018-12-31T12:31:05.445Z,56.07
2018-12-31T12:35:11.153Z,56.61
2018-12-31T12:39:16.833Z,56.73
2018-12-31T12:43:22.548Z,57.22
2018-12-31T12:47:28.246Z,57.05
2018-12-31T12:51:33.935Z,56.83
2018-12-31T12:55:39.660Z,57.31
2018-12-31T12:59:45.338Z,57.28
2018-12-31T13:03:51.038Z,57.07
2018-12-31T13:07:56.754Z,56.72
2018-12-31T13:12:02.464Z,56.81
2018-12-31T13:16:08.178Z,56.19
2018-12-31T13:20:13.917Z,56.18
2018-12-31T13:24:19.612Z,55.66
2018-12-31T13:28:25.610Z,55.75
2018-12-31T13:32:31.335Z,55.86
2018-12-31T13:36:37.029Z,54.60
2018-12-31T13:40:42.806Z,55.33
2018-12-31T13:44:48.502Z,55.33
2018-12-31T13:48:54.206Z,54.96
2018-12-31T13:52:59.921Z,55.32
2018-12-31T13:57:05.638Z,55.42
2018-12-31T14:01:11.661Z,55.95
2018-12-31T14:05:17.458Z,56.07
2018-12-31T14:09:23.173Z,55.90
2018-12-31T14:13:28.909Z,55.56
2018-12-31T14:17:34.612Z,55.53
2018-12-31T14:21:40.304Z,56.42
2018-12-31T14:25:46.001Z,55.54
2018-12-31T14:29:51.694Z,55.84
2018-12-31T14:33:57.396Z,55.13
2018-12-31T14:38:03.102Z,56.10
2018-12-31T14:42:08.825Z,55.78
2018-12-31T14:46:14.814Z,55.93
2018-12-31T14:50:20.517Z,56.48
2018-12-31T14:54:26.211Z,56.55
2018-12-31T14:58:31.934Z,56.90
2018-12-31T15:02:37.635Z,56.76
2018-12-31T15:06:43.411Z,56.72
2018-12-31T15:10:49.117Z,56.13
2018-12-31T15:14:54.797Z,56.93
2018-12-31T15:19:00.573Z,56.81
2018-12-31T15:23:06.358Z,56.06
2018-12-31T15:27:12.083Z,55.84
2018-12-31T15:31:17.810Z,55.58
2018-12-31T15:35:23.498Z,57.12
2018-12-31T15:39:29.197Z,56.95
2018-12-31T15:43:34.955Z,57.21
2018-12-31T15:47:40.679Z,56.49
2018-12-31T15:51:46.728Z,57.25
2018-12-31T15:55:52.416Z,56.10
2018-12-31T15:59:58.128Z,56.76
2018-12-31T16:04:03.838Z,56.82
2018-12-31T16:08:09.535Z,56.38
2018-12-31T16:12:15.216Z,56.35
2018-12-31T16:16:20.912Z,56.35
2018-12-31T16:20:26.616Z,56.31
2018-12-31T16:24:32.591Z,56.63
2018-12-31T16:28:38.309Z,55.98
2018-12-31T16:32:43.972Z,56.95
2018-12-31T16:36:49.748Z,57.13
2018-12-31T16:40:55.447Z,57.77
2018-12-31T16:45:01.135Z,57.89
2018-12-31T16:49:08.450Z,57.70
2018-12-31T16:53:14.145Z,57.71
2018-12-31T16:57:20.107Z,57.16
2018-12-31T17:01:25.883Z,56.01
2018-12-31T17:05:31.560Z,56.76
2018-12-31T17:09:37.268Z,56.87
2018-12-31T17:13:43.035Z,56.36
2018-12-31T17:17:48.740Z,56.51
2018-12-31T17:21:54.441Z,56.57
2018-12-31T17:26:00.149Z,56.88
2018-12-31T17:30:07.791Z,57.08
2018-12-31T17:34:13.491Z,58.08
2018-12-31T17:38:19.202Z,58.15
2018-12-31T17:42:24.907Z,56.65
2018-12-31T17:46:30.594Z,57.81
2018-12-31T17:50:36.296Z,57.55
2018-12-31T17:54:42.013Z,57.75
2018-12-31T17:58:47.707Z,56.70
2018-12-31T18:02:53.871Z,57.20
2018-12-31T18:06:59.557Z,57.47
2018-12-31T18:11:05.283Z,56.36
2018-12-31T18:15:11.015Z,56.94
2018-12-31T18:19:16.722Z,56.83
2018-12-31T18:23:22.431Z,57.31
2018-12-31T18:27:28.127Z,56.96
2018-12-31T18:31:33.875Z,56.22
2018-12-31T18:35:39.955Z,55.80
2018-12-31T18:39:49.362Z,56.54
2018-12-31T18:43:54.048Z,56.35
2018-12-31T18:47:59.799Z,56.08
2018-12-31T18:52:50.408Z,56.40
2018-12-31T18:56:56.116Z,56.65
2018-12-31T19:01:01.914Z,56.84
2018-12-31T19:05:07.890Z,57.70
2018-12-31T19:09:13.584Z,57.06
2018-12-31T19:13:19.296Z,56.88
2018-12-31T19:17:25.003Z,56.76
2018-12-31T19:21:30.705Z,56.77
2018-12-31T19:25:36.387Z,57.01
2018-12-31T19:29:42.173Z,58.01
2018-12-31T19:33:47.919Z,56.73
2018-12-31T19:37:53.959Z,56.80
2018-12-31T19:41:59.643Z,57.34
2018-12-31T19:46:05.344Z,57.05
2018-12-31T19:50:12.602Z,58.24
2018-12-31T19:54:18.296Z,57.09
2018-12-31T19:58:24.140Z,57.85
2018-12-31T20:02:29.868Z,57.08
2018-12-31T20:06:35.581Z,57.18
2018-12-31T20:10:41.287Z,58.23
2018-12-31T20:14:46.987Z,57.90
2018-12-31T20:18:52.671Z,56.25
2018-12-31T20:22:58.391Z,57.50
2018-12-31T20:27:04.081Z,56.41
2018-12-31T20:31:10.057Z,56.33
2018-12-31T20:35:15.779Z,66.60
2018-12-31T20:39:21.458Z,54.11
2018-12-31T20:43:27.168Z,56.52
2018-12-31T20:47:32.900Z,57.95
2018-12-31T20:51:38.660Z,59.86
2018-12-31T20:55:44.365Z,60.36
2018-12-31T20:59:50.041Z,61.25
2018-12-31T21:03:55.744Z,61.24
2018-12-31T21:08:01.452Z,61.74
2018-12-31T21:12:07.427Z,61.92
2018-12-31T21:16:13.122Z,63.51
2018-12-31T21:20:20.799Z,62.86
2018-12-31T21:24:26.293Z,60.79
2018-12-31T21:28:32.038Z,61.54
2018-12-31T21:32:37.833Z,62.61
2018-12-31T21:36:43.539Z,61.88
2018-12-31T21:40:50.185Z,61.75
2018-12-31T21:44:59.175Z,62.19
2018-12-31T21:49:04.908Z,62.54
2018-12-31T21:53:10.603Z,63.40
2018-12-31T21:57:18.138Z,63.34
2018-12-31T22:01:23.709Z,63.14
2018-12-31T22:05:29.398Z,61.73
2018-12-31T22:09:35.090Z,61.71
2018-12-31T22:13:40.785Z,61.96
2018-12-31T22:17:46.466Z,62.23
2018-12-31T22:21:52.156Z,62.35
2018-12-31T22:26:48.145Z,62.38
2018-12-31T22:30:53.918Z,62.31
2018-12-31T22:35:50.818Z,62.85
2018-12-31T22:39:56.516Z,62.30
2018-12-31T22:44:02.198Z,64.60
2018-12-31T22:48:07.895Z,65.98
2018-12-31T22:52:13.605Z,59.07
2018-12-31T22:56:19.579Z,60.42
2018-12-31T23:00:27.152Z,61.83
2018-12-31T23:04:34.442Z,61.74
2018-12-31T23:08:40.159Z,61.62
2018-12-31T23:12:45.848Z,65.74
2018-12-31T23:16:52.767Z,62.11
2018-12-31T23:20:58.473Z,59.33
2018-12-31T23:25:04.331Z,59.96
2018-12-31T23:29:11.568Z,60.85
2018-12-31T23:33:17.347Z,61.40
2018-12-31T23:37:23.040Z,61.09
2018-12-31T23:41:28.736Z,60.99
2018-12-31T23:45:34.502Z,61.27
2018-12-31T23:49:40.275Z,61.63
2018-12-31T23:53:45.987Z,62.04
2018-12-31T23:57:51.696Z,62.52
